Anaconda, Montana
Current Conditions -  °F | °C
As of 6:53 PM on Tuesday 25 Nov 2014 (Local Time) from KBTM Reporting Station
Light Snow Light Snow  
Wind Chill: 29°   Ceiling: 1000
Heat Index: 29°   Visibility: 1mi
Dew Point: 28°   Wind: 3mph
Humidity: 96%   Direction: 290°WNW
Pressure: 30.1"   Gusts: NA
Location:  46.13°N, 112.94°W
Report Text: KBTM 260153Z AUTO 29003KT 1SM -SN BR VV010 M02/M02 A3010 RMK AO2 SLP218 P0003 T10171022
Loading
Personal Weather Stations






























Interactive Weather Map New forecast layout! Learn more

10-Day Weather Forecast

Advertisements
Track Severe Weather on mobile